Time;durP1;ratioP1;P1;durP2;ratioP2;P2;SDS_P1;SDS_P2;PMS_P1;PMS_P2;Temp;Humidity;BMP_temperature;BMP_pressure;BME280_temperature;BME280_humidity;BME280_pressure;Samples;Min_cycle;Max_cycle;Signal;HPM_P1;HPM_P2
2022/04/15 00:02:48;;;;;;;27.42;13.10;;;;;;;;;;8391458;28;20048;-78
2022/04/15 00:06:51;;;;;;;23.70;13.05;;;;;;;;;;8388486;28;20519;-77
2022/04/15 00:10:57;;;;;;;25.42;13.18;;;;;;;;;;8382994;28;20100;-78
2022/04/15 00:15:00;;;;;;;24.30;13.15;;;;;;;;;;8379873;28;20048;-79
2022/04/15 00:19:02;;;;;;;22.27;12.70;;;;;;;;;;8391885;28;20036;-78
2022/04/15 00:23:05;;;;;;;21.45;11.30;;;;;;;;;;8381698;28;20453;-77
2022/04/15 00:27:09;;;;;;;23.52;12.52;;;;;;;;;;8370688;28;20156;-77
2022/04/15 00:31:11;;;;;;;24.63;12.18;;;;;;;;;;8403744;28;20036;-78
2022/04/15 00:35:13;;;;;;;26.42;12.70;;;;;;;;;;8402982;28;20051;-77
2022/04/15 00:39:16;;;;;;;25.00;12.93;;;;;;;;;;8398529;28;20044;-78
2022/04/15 00:43:20;;;;;;;23.02;12.57;;;;;;;;;;8415723;28;20048;-77
2022/04/15 00:47:31;;;;;;;19.52;11.38;;;;;;;;;;8406124;28;20059;-77
2022/04/15 00:51:37;;;;;;;21.63;12.68;;;;;;;;;;8413584;28;20040;-76
2022/04/15 00:55:43;;;;;;;22.90;13.13;;;;;;;;;;8429935;28;20048;-77
2022/04/15 00:59:48;;;;;;;25.98;13.13;;;;;;;;;;8402584;28;20114;-77
2022/04/15 01:03:52;;;;;;;26.02;12.93;;;;;;;;;;8408731;28;20495;-77
2022/04/15 01:07:56;;;;;;;24.40;13.52;;;;;;;;;;8399732;28;20564;-77
2022/04/15 01:12:00;;;;;;;21.77;12.45;;;;;;;;;;8418714;28;20054;-78
2022/04/15 01:16:07;;;;;;;25.98;13.98;;;;;;;;;;8394497;28;20143;-78
2022/04/15 01:20:11;;;;;;;22.33;12.45;;;;;;;;;;8419388;28;20097;-78
2022/04/15 01:24:15;;;;;;;23.00;13.30;;;;;;;;;;8413650;28;20044;-77
2022/04/15 01:28:19;;;;;;;26.65;12.95;;;;;;;;;;8404899;28;20048;-77
2022/04/15 01:32:21;;;;;;;24.38;12.27;;;;;;;;;;8396762;28;20044;-78
2022/04/15 01:36:24;;;;;;;26.33;13.75;;;;;;;;;;8404804;28;20051;-77
2022/04/15 01:40:28;;;;;;;23.25;13.18;;;;;;;;;;8428106;28;20047;-77
2022/04/15 01:44:31;;;;;;;24.33;13.13;;;;;;;;;;8405087;28;20530;-77
2022/04/15 01:48:33;;;;;;;21.67;13.00;;;;;;;;;;8402914;28;20119;-77
2022/04/15 01:52:36;;;;;;;28.67;13.15;;;;;;;;;;8410451;28;20067;-78
2022/04/15 01:56:41;;;;;;;23.00;12.88;;;;;;;;;;8394282;28;20530;-77
2022/04/15 02:00:43;;;;;;;28.70;13.70;;;;;;;;;;8416066;28;20097;-77
2022/04/15 02:04:46;;;;;;;24.10;12.82;;;;;;;;;;8401568;28;20044;-77
2022/04/15 02:08:48;;;;;;;23.88;13.65;;;;;;;;;;8390104;28;20098;-78
2022/04/15 02:12:52;;;;;;;21.95;12.60;;;;;;;;;;8402119;28;20044;-77
2022/04/15 02:16:55;;;;;;;23.60;13.20;;;;;;;;;;8414135;28;20048;-77
2022/04/15 02:20:57;;;;;;;29.55;12.40;;;;;;;;;;8404436;28;20051;-78
2022/04/15 02:25:00;;;;;;;23.40;13.35;;;;;;;;;;8435325;28;20059;-78
2022/04/15 02:29:04;;;;;;;23.75;13.10;;;;;;;;;;8400778;28;20522;-77
2022/04/15 02:33:07;;;;;;;21.23;12.85;;;;;;;;;;8405075;28;20061;-77
2022/04/15 02:37:09;;;;;;;27.45;14.20;;;;;;;;;;8406402;28;20135;-78
2022/04/15 02:41:12;;;;;;;29.80;14.48;;;;;;;;;;8422361;28;20517;-77
2022/04/15 02:45:16;;;;;;;26.70;15.48;;;;;;;;;;8409236;28;20123;-78
2022/04/15 02:49:18;;;;;;;31.25;15.75;;;;;;;;;;8427992;28;20048;-77
2022/04/15 02:53:21;;;;;;;26.75;14.45;;;;;;;;;;8418508;28;20044;-76
2022/04/15 02:57:24;;;;;;;33.35;17.38;;;;;;;;;;8431757;28;20391;-77
2022/04/15 03:01:27;;;;;;;34.58;17.30;;;;;;;;;;8420966;28;20044;-77
2022/04/15 03:05:30;;;;;;;36.63;18.30;;;;;;;;;;8416247;28;20047;-76
2022/04/15 03:09:32;;;;;;;43.90;22.17;;;;;;;;;;8403901;28;20121;-79
2022/04/15 03:13:36;;;;;;;45.58;24.58;;;;;;;;;;8402190;28;20458;-78
2022/04/15 03:17:40;;;;;;;48.42;23.42;;;;;;;;;;8416372;28;20063;-77
2022/04/15 03:21:43;;;;;;;44.78;24.35;;;;;;;;;;8422963;28;20052;-77
2022/04/15 03:25:46;;;;;;;47.45;23.90;;;;;;;;;;8417214;28;20044;-77
2022/04/15 03:29:49;;;;;;;47.45;24.55;;;;;;;;;;8408158;28;20067;-78
2022/04/15 03:33:52;;;;;;;51.72;25.55;;;;;;;;;;8418977;28;20036;-77
2022/04/15 03:37:55;;;;;;;53.45;27.48;;;;;;;;;;8412256;28;20046;-76
2022/04/15 03:41:58;;;;;;;49.03;26.45;;;;;;;;;;8405117;28;20458;-76
2022/04/15 03:46:01;;;;;;;58.85;26.73;;;;;;;;;;8418418;28;20114;-77
2022/04/15 03:50:05;;;;;;;48.33;26.75;;;;;;;;;;8407475;28;20429;-76
2022/04/15 03:54:08;;;;;;;58.08;29.13;;;;;;;;;;8417054;28;20040;-76
2022/04/15 03:58:11;;;;;;;55.58;27.20;;;;;;;;;;8402355;28;20048;-77
2022/04/15 04:02:14;;;;;;;57.28;27.25;;;;;;;;;;8409482;28;20047;-77
2022/04/15 04:06:18;;;;;;;49.58;26.75;;;;;;;;;;8416490;28;20127;-77
2022/04/15 04:10:21;;;;;;;49.85;26.50;;;;;;;;;;8403479;28;20078;-77
2022/04/15 04:14:23;;;;;;;48.67;27.63;;;;;;;;;;8412717;28;20079;-76
2022/04/15 04:18:26;;;;;;;47.85;26.52;;;;;;;;;;8402630;28;20056;-77
2022/04/15 04:22:31;;;;;;;50.40;26.30;;;;;;;;;;8398154;28;20408;-77
2022/04/15 04:26:33;;;;;;;47.08;26.58;;;;;;;;;;8397459;28;20040;-77
2022/04/15 04:30:36;;;;;;;54.88;28.58;;;;;;;;;;8407648;28;20037;-78
2022/04/15 04:34:38;;;;;;;56.90;27.95;;;;;;;;;;8422857;28;20476;-77
2022/04/15 04:38:42;;;;;;;56.60;30.90;;;;;;;;;;8364776;28;20048;-77
2022/04/15 04:42:46;;;;;;;53.08;29.15;;;;;;;;;;8420096;28;20468;-77
2022/04/15 04:46:49;;;;;;;60.03;30.58;;;;;;;;;;8414779;28;20408;-76
2022/04/15 04:50:52;;;;;;;59.70;29.73;;;;;;;;;;8413278;28;20047;-77
2022/04/15 04:54:56;;;;;;;59.88;32.38;;;;;;;;;;8403524;28;20048;-77
2022/04/15 04:58:58;;;;;;;75.35;35.03;;;;;;;;;;8411513;28;20051;-76
2022/04/15 05:03:02;;;;;;;60.03;32.35;;;;;;;;;;8398359;28;20052;-77
2022/04/15 05:07:05;;;;;;;69.80;37.15;;;;;;;;;;8403036;28;20043;-77
2022/04/15 05:11:09;;;;;;;63.30;34.20;;;;;;;;;;8416242;28;20044;-77
2022/04/15 05:15:12;;;;;;;68.80;35.65;;;;;;;;;;8412187;28;20407;-77
2022/04/15 05:19:15;;;;;;;66.97;35.38;;;;;;;;;;8408039;28;20044;-76
2022/04/15 05:23:17;;;;;;;65.97;33.38;;;;;;;;;;8420029;28;20044;-76
2022/04/15 05:27:21;;;;;;;64.38;32.90;;;;;;;;;;8406819;28;20048;-75
2022/04/15 05:31:24;;;;;;;63.60;31.73;;;;;;;;;;8396954;28;20048;-75
2022/04/15 05:35:27;;;;;;;65.57;32.88;;;;;;;;;;8397123;28;20055;-76
2022/04/15 05:39:29;;;;;;;75.13;37.05;;;;;;;;;;8389007;28;20098;-77
2022/04/15 05:43:33;;;;;;;68.22;34.53;;;;;;;;;;8423096;28;20523;-77
2022/04/15 05:47:37;;;;;;;68.55;35.50;;;;;;;;;;8399754;28;20044;-77
2022/04/15 05:51:39;;;;;;;69.75;35.78;;;;;;;;;;8423791;28;20097;-76
2022/04/15 05:55:42;;;;;;;55.50;31.88;;;;;;;;;;8398587;28;20052;-77
2022/04/15 05:59:46;;;;;;;63.95;35.88;;;;;;;;;;8426351;28;20048;-77
2022/04/15 06:03:49;;;;;;;64.82;33.78;;;;;;;;;;8403177;28;20137;-77
2022/04/15 06:07:53;;;;;;;62.67;34.75;;;;;;;;;;8394307;28;20048;-77
2022/04/15 06:11:57;;;;;;;63.45;32.80;;;;;;;;;;8391168;28;20151;-76
2022/04/15 06:16:02;;;;;;;65.43;36.50;;;;;;;;;;8417293;28;20045;-77
2022/04/15 06:20:06;;;;;;;74.53;38.28;;;;;;;;;;8407026;28;20077;-76
2022/04/15 06:24:10;;;;;;;78.85;41.03;;;;;;;;;;8414687;28;20529;-77
2022/04/15 06:28:13;;;;;;;86.05;40.42;;;;;;;;;;8413314;28;20040;-77
2022/04/15 06:32:17;;;;;;;75.60;38.35;;;;;;;;;;8386769;28;20044;-75
2022/04/15 06:36:20;;;;;;;95.20;44.42;;;;;;;;;;8408707;28;20062;-76
2022/04/15 06:40:23;;;;;;;94.60;44.47;;;;;;;;;;8413295;28;20521;-75
2022/04/15 06:44:26;;;;;;;89.10;40.75;;;;;;;;;;8411281;28;20052;-76
2022/04/15 06:48:30;;;;;;;80.97;42.38;;;;;;;;;;8400646;28;20052;-77
2022/04/15 06:52:33;;;;;;;85.22;40.67;;;;;;;;;;8405390;28;20114;-74
2022/04/15 06:56:36;;;;;;;70.85;38.17;;;;;;;;;;8391689;28;20052;-73
2022/04/15 07:00:39;;;;;;;68.28;38.90;;;;;;;;;;8382402;28;20186;-74
2022/04/15 07:04:43;;;;;;;80.68;41.03;;;;;;;;;;8393036;28;20493;-73
2022/04/15 07:08:46;;;;;;;69.93;38.25;;;;;;;;;;8404167;28;20044;-74
2022/04/15 07:12:49;;;;;;;65.85;38.10;;;;;;;;;;8383688;28;20075;-74
2022/04/15 07:16:52;;;;;;;68.90;38.03;;;;;;;;;;8382294;28;20060;-73
2022/04/15 07:20:58;;;;;;;67.43;36.10;;;;;;;;;;8394759;28;20055;-74
2022/04/15 07:25:01;;;;;;;65.35;36.67;;;;;;;;;;8398442;28;20075;-73
2022/04/15 07:29:05;;;;;;;66.10;35.83;;;;;;;;;;8390808;28;21381;-75
2022/04/15 07:33:08;;;;;;;67.55;37.25;;;;;;;;;;8384119;28;20515;-75
2022/04/15 07:37:12;;;;;;;61.42;34.88;;;;;;;;;;8392657;28;20048;-75
2022/04/15 07:41:16;;;;;;;70.95;38.47;;;;;;;;;;8395041;28;20044;-76
2022/04/15 07:45:21;;;;;;;82.28;41.17;;;;;;;;;;8390695;28;20068;-77
2022/04/15 07:49:26;;;;;;;75.93;42.35;;;;;;;;;;8393754;28;20040;-77
2022/04/15 07:53:41;;;;;;;77.43;41.72;;;;;;;;;;8397242;28;20048;-77
2022/04/15 07:57:48;;;;;;;74.68;39.78;;;;;;;;;;8391526;28;20048;-76
2022/04/15 08:01:53;;;;;;;77.80;41.88;;;;;;;;;;8399253;28;20048;-76
2022/04/15 08:05:59;;;;;;;86.05;43.10;;;;;;;;;;8408925;28;20044;-75
2022/04/15 08:10:06;;;;;;;73.00;36.35;;;;;;;;;;8425355;28;20117;-75
2022/04/15 08:14:16;;;;;;;57.03;31.55;;;;;;;;;;8405141;28;20060;-75
2022/04/15 08:18:23;;;;;;;60.37;31.80;;;;;;;;;;8378410;28;20098;-75
2022/04/15 08:22:41;;;;;;;49.58;29.13;;;;;;;;;;8383584;28;20484;-75
2022/04/15 08:26:56;;;;;;;50.58;27.58;;;;;;;;;;8397331;28;20062;-75
2022/04/15 08:31:29;;;;;;;48.10;27.98;;;;;;;;;;8393278;28;20099;-75
2022/04/15 08:35:49;;;;;;;53.28;28.80;;;;;;;;;;8393265;28;20048;-77
2022/04/15 08:39:54;;;;;;;46.35;25.50;;;;;;;;;;8403830;28;20041;-76
2022/04/15 08:43:58;;;;;;;44.08;23.25;;;;;;;;;;8389503;28;20049;-75
2022/04/15 08:48:03;;;;;;;40.78;23.10;;;;;;;;;;8388818;28;20101;-75
2022/04/15 08:52:09;;;;;;;47.63;26.38;;;;;;;;;;8396877;28;20041;-76
2022/04/15 08:56:12;;;;;;;44.17;25.60;;;;;;;;;;8395953;28;20481;-75
2022/04/15 09:00:20;;;;;;;38.75;24.02;;;;;;;;;;8384470;28;20085;-74
2022/04/15 09:04:24;;;;;;;33.95;20.85;;;;;;;;;;8388607;28;20408;-75
2022/04/15 09:08:27;;;;;;;23.75;15.77;;;;;;;;;;8404880;28;20049;-76
2022/04/15 09:12:35;;;;;;;26.02;16.10;;;;;;;;;;8395293;28;20052;-76
2022/04/15 09:16:43;;;;;;;29.83;15.63;;;;;;;;;;8391797;28;20045;-77
2022/04/15 09:20:49;;;;;;;26.42;15.73;;;;;;;;;;8384206;28;20045;-75
2022/04/15 09:24:52;;;;;;;16.67;10.02;;;;;;;;;;8389377;28;20133;-75
2022/04/15 09:28:58;;;;;;;16.00;10.68;;;;;;;;;;8413792;28;20049;-77
2022/04/15 09:33:04;;;;;;;25.33;13.05;;;;;;;;;;8397659;28;20064;-75
2022/04/15 09:37:08;;;;;;;22.88;12.10;;;;;;;;;;8407404;28;20085;-75
2022/04/15 09:41:21;;;;;;;22.27;12.75;;;;;;;;;;8411150;28;20101;-74
2022/04/15 09:45:26;;;;;;;20.45;11.77;;;;;;;;;;8404277;28;20569;-76
2022/04/15 09:49:34;;;;;;;22.75;12.27;;;;;;;;;;8377575;28;20045;-76
2022/04/15 09:53:37;;;;;;;28.35;13.40;;;;;;;;;;8380117;28;20095;-76
2022/04/15 09:57:42;;;;;;;24.67;11.30;;;;;;;;;;8378572;28;20448;-77
2022/04/15 10:01:46;;;;;;;39.08;21.15;;;;;;;;;;8372415;28;20052;-77
2022/04/15 10:05:54;;;;;;;37.20;20.17;;;;;;;;;;8384753;28;20045;-77
2022/04/15 10:09:58;;;;;;;33.53;18.02;;;;;;;;;;8379947;28;20059;-77
2022/04/15 10:14:04;;;;;;;25.20;14.85;;;;;;;;;;8380035;28;20059;-76
2022/04/15 10:18:09;;;;;;;29.13;16.58;;;;;;;;;;8392712;28;20148;-77
2022/04/15 10:22:15;;;;;;;22.02;13.05;;;;;;;;;;8393148;28;20052;-76
2022/04/15 10:26:19;;;;;;;21.92;11.43;;;;;;;;;;8377074;28;20049;-77
2022/04/15 10:30:23;;;;;;;20.17;10.82;;;;;;;;;;8377750;28;20103;-77
2022/04/15 10:34:26;;;;;;;15.57;10.00;;;;;;;;;;8391322;28;20041;-76
2022/04/15 10:38:30;;;;;;;14.48;10.40;;;;;;;;;;8370278;28;20060;-77
2022/04/15 10:42:33;;;;;;;16.77;9.48;;;;;;;;;;8367595;28;20053;-76
2022/04/15 10:46:38;;;;;;;11.43;7.10;;;;;;;;;;8378470;28;20053;-76
2022/04/15 10:50:42;;;;;;;16.35;10.18;;;;;;;;;;8383947;28;20040;-76
2022/04/15 10:54:48;;;;;;;10.63;5.93;;;;;;;;;;8379617;28;20048;-77
2022/04/15 11:03:27;;;;;;;14.13;7.40;;;;;;;;;;8396239;28;20056;-77
2022/04/15 11:07:41;;;;;;;9.45;6.05;;;;;;;;;;8374260;28;20049;-77
2022/04/15 11:11:51;;;;;;;13.73;8.40;;;;;;;;;;8384058;28;20049;-79
2022/04/15 11:15:57;;;;;;;14.20;7.95;;;;;;;;;;8372793;28;20420;-77
2022/04/15 11:20:01;;;;;;;16.98;8.20;;;;;;;;;;8371318;28;20484;-76
2022/04/15 11:24:05;;;;;;;16.35;8.82;;;;;;;;;;8374582;28;20111;-76
2022/04/15 11:28:10;;;;;;;9.23;5.60;;;;;;;;;;8377303;28;20048;-76
2022/04/15 11:32:13;;;;;;;10.30;5.93;;;;;;;;;;8379014;28;20507;-77
2022/04/15 11:36:17;;;;;;;7.35;4.72;;;;;;;;;;8365978;28;20488;-76
2022/04/15 11:40:23;;;;;;;10.30;5.13;;;;;;;;;;8379617;28;20456;-76
2022/04/15 11:44:34;;;;;;;6.63;4.50;;;;;;;;;;8378328;28;20083;-77
2022/04/15 11:48:54;;;;;;;8.82;5.20;;;;;;;;;;8365599;28;20528;-77
2022/04/15 11:53:10;;;;;;;12.02;6.78;;;;;;;;;;8366019;28;20127;-77
2022/04/15 11:57:31;;;;;;;11.40;6.53;;;;;;;;;;8395271;28;20044;-77
2022/04/15 12:01:48;;;;;;;14.40;8.98;;;;;;;;;;8397434;28;20052;-77
2022/04/15 12:06:02;;;;;;;10.88;6.32;;;;;;;;;;8398241;28;20052;-77
2022/04/15 12:10:17;;;;;;;12.52;6.47;;;;;;;;;;8398463;28;20457;-77
2022/04/15 12:14:43;;;;;;;11.15;6.68;;;;;;;;;;8397775;28;20056;-77
2022/04/15 12:19:03;;;;;;;11.55;6.75;;;;;;;;;;8397598;28;20395;-78
2022/04/15 12:23:14;;;;;;;9.90;5.50;;;;;;;;;;8398002;28;20123;-77
2022/04/15 12:27:25;;;;;;;9.88;5.90;;;;;;;;;;8395110;28;20452;-78
2022/04/15 12:31:45;;;;;;;10.18;6.13;;;;;;;;;;8381471;28;20055;-78
2022/04/15 12:36:10;;;;;;;10.65;6.18;;;;;;;;;;8392286;28;20056;-77
2022/04/15 12:40:41;;;;;;;12.02;7.45;;;;;;;;;;8399647;28;20508;-77
2022/04/15 12:45:00;;;;;;;9.38;5.80;;;;;;;;;;8363243;28;20493;-77
2022/04/15 12:49:35;;;;;;;10.00;5.75;;;;;;;;;;8375616;28;20403;-77
2022/04/15 12:53:48;;;;;;;5.60;4.15;;;;;;;;;;8371630;28;20044;-78
2022/04/15 12:57:54;;;;;;;9.55;6.60;;;;;;;;;;8380647;28;20044;-79
2022/04/15 13:02:19;;;;;;;7.05;4.82;;;;;;;;;;8384666;28;20059;-78
2022/04/15 13:06:36;;;;;;;7.50;4.88;;;;;;;;;;8378390;28;20044;-78
2022/04/15 13:10:43;;;;;;;7.60;4.80;;;;;;;;;;8372737;28;21787;-79
2022/04/15 13:14:53;;;;;;;7.88;5.10;;;;;;;;;;8370108;28;20120;-79
2022/04/15 13:19:23;;;;;;;7.03;4.90;;;;;;;;;;8380731;28;20648;-78
2022/04/15 13:23:29;;;;;;;12.68;5.88;;;;;;;;;;8376204;28;20052;-80
2022/04/15 13:27:35;;;;;;;9.27;5.82;;;;;;;;;;8380475;28;20102;-79
2022/04/15 13:31:39;;;;;;;6.15;3.83;;;;;;;;;;8384335;28;20048;-79
2022/04/15 13:35:43;;;;;;;7.88;4.32;;;;;;;;;;8393656;28;20048;-81
2022/04/15 13:39:47;;;;;;;8.05;4.85;;;;;;;;;;8394660;28;20488;-78
2022/04/15 13:43:51;;;;;;;7.10;4.05;;;;;;;;;;8364996;28;20041;-77
2022/04/15 13:47:57;;;;;;;10.02;6.22;;;;;;;;;;8389758;28;20114;-77
2022/04/15 13:56:34;;;;;;;8.82;5.00;;;;;;;;;;8388591;28;20045;-77
2022/04/15 13:56:42;;;;;;;5.20;3.72;;;;;;;;;;8387638;28;20048;-79
2022/04/15 14:00:55;;;;;;;6.53;3.63;;;;;;;;;;8392635;28;20506;-78
2022/04/15 14:05:10;;;;;;;9.30;4.68;;;;;;;;;;8392854;28;20052;-79
2022/04/15 14:09:15;;;;;;;10.43;4.90;;;;;;;;;;8392467;28;20071;-76
2022/04/15 14:13:19;;;;;;;8.80;4.93;;;;;;;;;;8383760;28;20057;-77
2022/04/15 14:17:23;;;;;;;7.68;4.88;;;;;;;;;;8363499;28;20480;-77
2022/04/15 14:21:28;;;;;;;6.55;4.20;;;;;;;;;;8389807;28;20045;-77
2022/04/15 14:25:31;;;;;;;7.60;4.10;;;;;;;;;;8379469;28;20396;-78
2022/04/15 14:29:36;;;;;;;8.10;4.38;;;;;;;;;;8377597;28;20392;-78
2022/04/15 14:33:42;;;;;;;8.68;4.28;;;;;;;;;;8375433;28;20388;-79
2022/04/15 14:37:48;;;;;;;9.45;6.63;;;;;;;;;;8372637;28;20049;-79
2022/04/15 14:41:51;;;;;;;11.95;6.03;;;;;;;;;;8394834;28;20441;-78
2022/04/15 14:45:55;;;;;;;11.23;5.35;;;;;;;;;;8381678;28;20052;-79
2022/04/15 14:50:00;;;;;;;9.80;5.65;;;;;;;;;;8398384;28;20521;-78
2022/04/15 14:54:05;;;;;;;14.30;8.07;;;;;;;;;;8389021;28;20049;-79
2022/04/15 14:58:19;;;;;;;10.15;6.40;;;;;;;;;;8389129;28;20052;-78
2022/04/15 15:02:24;;;;;;;11.10;7.25;;;;;;;;;;8369346;28;20094;-77
2022/04/15 15:06:31;;;;;;;11.60;7.38;;;;;;;;;;8377762;28;20053;-78
2022/04/15 15:10:48;;;;;;;13.55;8.45;;;;;;;;;;8381943;28;20132;-79
2022/04/15 15:14:53;;;;;;;18.50;11.18;;;;;;;;;;8387786;28;20447;-77
2022/04/15 15:18:58;;;;;;;20.52;11.35;;;;;;;;;;8378525;28;20558;-77
2022/04/15 15:23:03;;;;;;;27.30;13.80;;;;;;;;;;8390282;28;20045;-77
2022/04/15 15:31:36;;;;;;;9.77;5.35;;;;;;;;;;8388091;28;20048;-79
2022/04/15 15:35:47;;;;;;;9.13;4.85;;;;;;;;;;8389428;28;20097;-79
2022/04/15 15:39:54;;;;;;;8.18;5.40;;;;;;;;;;8393295;28;20049;-80
2022/04/15 15:44:01;;;;;;;7.75;4.90;;;;;;;;;;8391185;28;20067;-80
2022/04/15 15:48:05;;;;;;;8.23;4.72;;;;;;;;;;8387810;28;20541;-78
2022/04/15 15:52:10;;;;;;;7.35;4.22;;;;;;;;;;8390125;28;20490;-79
2022/04/15 15:56:14;;;;;;;22.33;11.43;;;;;;;;;;8409559;28;20036;-78
2022/04/15 16:00:17;;;;;;;12.18;6.20;;;;;;;;;;8401568;28;20045;-80
2022/04/15 16:04:20;;;;;;;10.30;5.47;;;;;;;;;;8399411;28;20044;-80
2022/04/15 16:08:23;;;;;;;15.32;6.85;;;;;;;;;;8379465;28;20048;-79
2022/04/15 16:12:30;;;;;;;10.20;5.10;;;;;;;;;;8378372;28;20144;-79
2022/04/15 16:16:33;;;;;;;16.33;8.20;;;;;;;;;;8383770;28;20400;-80
2022/04/15 16:20:36;;;;;;;17.88;9.73;;;;;;;;;;8394616;28;20567;-80
2022/04/15 16:24:39;;;;;;;10.60;6.47;;;;;;;;;;8392112;28;20045;-80
2022/04/15 16:28:45;;;;;;;15.27;7.28;;;;;;;;;;8387675;28;20041;-80
2022/04/15 16:32:52;;;;;;;13.13;6.95;;;;;;;;;;8386509;28;20476;-80
2022/04/15 16:36:55;;;;;;;8.35;5.35;;;;;;;;;;8390892;28;20045;-80
2022/04/15 16:41:00;;;;;;;13.95;6.75;;;;;;;;;;8366942;28;20455;-80
2022/04/15 16:45:05;;;;;;;14.40;7.85;;;;;;;;;;8370283;28;20676;-79
2022/04/15 16:49:08;;;;;;;12.27;7.35;;;;;;;;;;8375786;28;20132;-80
2022/04/15 16:53:11;;;;;;;15.93;9.52;;;;;;;;;;8375906;28;20048;-79
2022/04/15 17:01:36;;;;;;;22.25;10.93;;;;;;;;;;8373858;28;20045;-79
2022/04/15 17:05:41;;;;;;;20.50;11.82;;;;;;;;;;8374587;28;20068;-80
2022/04/15 17:09:44;;;;;;;29.35;16.08;;;;;;;;;;8380470;28;20051;-80
2022/04/15 17:13:48;;;;;;;69.60;34.83;;;;;;;;;;8367493;28;20480;-80
2022/04/15 17:17:53;;;;;;;76.07;34.70;;;;;;;;;;8388062;28;20040;-80
2022/04/15 17:21:56;;;;;;;46.60;22.63;;;;;;;;;;8382364;28;20076;-79
2022/04/15 17:25:59;;;;;;;43.72;23.23;;;;;;;;;;8384911;28;20541;-80
2022/04/15 17:30:04;;;;;;;50.65;27.65;;;;;;;;;;8388916;28;20048;-80
2022/04/15 17:34:14;;;;;;;77.78;39.58;;;;;;;;;;8395180;28;20482;-80
2022/04/15 17:38:21;;;;;;;48.63;24.00;;;;;;;;;;8384804;28;20094;-79
2022/04/15 17:42:38;;;;;;;82.75;40.63;;;;;;;;;;8382765;28;20041;-80
2022/04/15 17:46:47;;;;;;;42.17;23.95;;;;;;;;;;8373000;28;20045;-78
2022/04/15 17:51:00;;;;;;;48.53;25.92;;;;;;;;;;8387117;28;20136;-77
2022/04/15 17:55:03;;;;;;;27.13;15.43;;;;;;;;;;8372605;28;20423;-78
2022/04/15 17:59:06;;;;;;;27.13;16.17;;;;;;;;;;8379869;28;20048;-77
2022/04/15 18:03:10;;;;;;;21.77;11.27;;;;;;;;;;8379755;28;20045;-78
2022/04/15 18:07:15;;;;;;;64.72;30.17;;;;;;;;;;8369285;28;20411;-77
2022/04/15 18:11:20;;;;;;;65.63;30.40;;;;;;;;;;8368246;28;20144;-77
2022/04/15 18:15:27;;;;;;;51.75;24.30;;;;;;;;;;8376858;28;20076;-77
2022/04/15 18:19:31;;;;;;;34.58;20.45;;;;;;;;;;8387118;28;20139;-77
2022/04/15 18:23:36;;;;;;;36.35;18.58;;;;;;;;;;8380117;28;20048;-77
2022/04/15 18:27:39;;;;;;;56.58;31.00;;;;;;;;;;8377788;28;20045;-77
2022/04/15 18:31:42;;;;;;;28.80;16.75;;;;;;;;;;8376835;28;20056;-77
2022/04/15 18:35:46;;;;;;;38.20;19.08;;;;;;;;;;8398250;28;20045;-76
2022/04/15 18:39:50;;;;;;;25.25;15.35;;;;;;;;;;8398486;28;20052;-76
2022/04/15 18:43:56;;;;;;;28.08;15.95;;;;;;;;;;8382771;28;20052;-77
2022/04/15 18:52:34;;;;;;;24.73;14.02;;;;;;;;;;8365646;28;20045;-78
2022/04/15 18:52:37;;;;;;;22.77;11.98;;;;;;;;;;8389366;28;20052;-81
2022/04/15 18:56:41;;;;;;;23.13;11.75;;;;;;;;;;8379225;28;20052;-79
2022/04/15 19:00:44;;;;;;;30.80;16.70;;;;;;;;;;8381297;28;20053;-83
2022/04/15 19:04:49;;;;;;;22.10;12.25;;;;;;;;;;8394930;28;20043;-79
2022/04/15 19:08:55;;;;;;;16.88;9.80;;;;;;;;;;8396895;28;20041;-78
2022/04/15 19:13:02;;;;;;;18.25;10.35;;;;;;;;;;8397071;28;20511;-79
2022/04/15 19:17:06;;;;;;;16.42;9.27;;;;;;;;;;8395474;28;20532;-79
2022/04/15 19:21:08;;;;;;;18.00;9.70;;;;;;;;;;8398510;28;20048;-79
2022/04/15 19:25:13;;;;;;;17.48;9.80;;;;;;;;;;8399665;28;20142;-80
2022/04/15 19:29:20;;;;;;;17.25;9.57;;;;;;;;;;8398038;28;20045;-78
2022/04/15 19:33:23;;;;;;;15.63;8.65;;;;;;;;;;8399708;28;20136;-77
2022/04/15 19:37:26;;;;;;;17.83;9.88;;;;;;;;;;8403522;28;20072;-77
2022/04/15 19:41:31;;;;;;;18.65;10.10;;;;;;;;;;8405009;28;20052;-78
2022/04/15 19:45:36;;;;;;;16.73;9.77;;;;;;;;;;8405351;28;20055;-77
2022/04/15 19:49:39;;;;;;;12.50;7.85;;;;;;;;;;8397872;28;20090;-77
2022/04/15 19:53:43;;;;;;;13.60;8.00;;;;;;;;;;8397683;28;20044;-77
2022/04/15 20:02:20;;;;;;;14.07;7.30;;;;;;;;;;8397060;28;20048;-77
2022/04/15 20:06:26;;;;;;;16.30;9.95;;;;;;;;;;8397011;28;20533;-77
2022/04/15 20:10:32;;;;;;;17.27;10.13;;;;;;;;;;8397034;28;20064;-76
2022/04/15 20:14:37;;;;;;;21.13;12.63;;;;;;;;;;8392598;28;20170;-75
2022/04/15 20:18:43;;;;;;;21.20;11.23;;;;;;;;;;8397424;28;20047;-77
2022/04/15 20:22:46;;;;;;;20.23;11.52;;;;;;;;;;8396066;28;20048;-76
2022/04/15 20:26:49;;;;;;;20.92;11.70;;;;;;;;;;8397319;28;20047;-76
2022/04/15 20:30:53;;;;;;;21.63;10.68;;;;;;;;;;8396169;28;20041;-78
2022/04/15 20:35:00;;;;;;;19.70;10.50;;;;;;;;;;8397364;28;20049;-77
2022/04/15 20:39:04;;;;;;;22.67;12.27;;;;;;;;;;8393900;28;20041;-75
2022/04/15 20:43:08;;;;;;;22.23;13.35;;;;;;;;;;8397732;28;20472;-80
2022/04/15 20:47:11;;;;;;;22.77;12.90;;;;;;;;;;8397384;28;20044;-76
2022/04/15 20:51:16;;;;;;;24.38;12.98;;;;;;;;;;8396826;28;20118;-76
2022/04/15 20:55:19;;;;;;;26.45;13.95;;;;;;;;;;8393218;28;20048;-75
2022/04/15 20:59:25;;;;;;;26.67;13.00;;;;;;;;;;8396976;28;20053;-76
2022/04/15 21:03:28;;;;;;;19.13;10.60;;;;;;;;;;8409987;28;20048;-77
2022/04/15 21:07:32;;;;;;;20.77;12.20;;;;;;;;;;8409835;28;20052;-75
2022/04/15 21:11:36;;;;;;;19.98;12.20;;;;;;;;;;8412745;28;20047;-75
2022/04/15 21:15:40;;;;;;;25.80;12.27;;;;;;;;;;8397853;28;20052;-75
2022/04/15 21:19:43;;;;;;;23.08;12.70;;;;;;;;;;8412631;28;20052;-75
2022/04/15 21:23:47;;;;;;;35.75;18.85;;;;;;;;;;8429347;28;20052;-75
2022/04/15 21:27:50;;;;;;;46.45;18.27;;;;;;;;;;8412532;28;20044;-75
2022/04/15 21:31:53;;;;;;;49.13;22.98;;;;;;;;;;8412925;28;20052;-75
2022/04/15 21:35:57;;;;;;;53.88;24.33;;;;;;;;;;8405869;28;20485;-75
2022/04/15 21:40:02;;;;;;;53.20;25.23;;;;;;;;;;8396347;28;20049;-75
2022/04/15 21:44:05;;;;;;;57.05;26.23;;;;;;;;;;8396416;28;20052;-77
2022/04/15 21:48:09;;;;;;;57.67;26.88;;;;;;;;;;8397240;28;20060;-76
2022/04/15 21:56:33;;;;;;;64.25;26.77;;;;;;;;;;8396352;28;20059;-77
2022/04/15 22:00:41;;;;;;;73.30;34.05;;;;;;;;;;8396104;28;20418;-77
2022/04/15 22:04:48;;;;;;;96.47;39.30;;;;;;;;;;8392961;28;20101;-77
2022/04/15 22:08:51;;;;;;;75.38;32.15;;;;;;;;;;8396933;28;20068;-76
2022/04/15 22:12:56;;;;;;;64.00;28.83;;;;;;;;;;8404878;28;20052;-76
2022/04/15 22:16:59;;;;;;;73.18;30.25;;;;;;;;;;8423215;28;20381;-77
2022/04/15 22:21:02;;;;;;;49.38;25.25;;;;;;;;;;8396112;28;20044;-77
2022/04/15 22:25:08;;;;;;;50.78;24.33;;;;;;;;;;8395611;28;20048;-78
2022/04/15 22:29:12;;;;;;;53.50;25.02;;;;;;;;;;8395676;28;20125;-76
2022/04/15 22:33:16;;;;;;;50.10;23.55;;;;;;;;;;8396137;28;20052;-77
2022/04/15 22:37:19;;;;;;;48.30;22.55;;;;;;;;;;8391894;28;20045;-76
2022/04/15 22:41:22;;;;;;;38.72;21.63;;;;;;;;;;8371183;28;20103;-76
2022/04/15 22:45:28;;;;;;;50.05;24.42;;;;;;;;;;8372773;28;20095;-76
2022/04/15 22:49:31;;;;;;;44.20;22.40;;;;;;;;;;8375517;28;20074;-77
2022/04/15 22:53:33;;;;;;;46.78;24.20;;;;;;;;;;8392748;28;20051;-77
2022/04/15 22:57:35;;;;;;;54.20;22.92;;;;;;;;;;8380386;28;20045;-77
2022/04/15 23:01:40;;;;;;;47.83;21.98;;;;;;;;;;8367487;28;20049;-76
2022/04/15 23:05:43;;;;;;;53.53;23.80;;;;;;;;;;8379420;28;20076;-76
2022/04/15 23:09:46;;;;;;;60.53;27.45;;;;;;;;;;8367835;28;20485;-76
2022/04/15 23:13:48;;;;;;;61.63;25.83;;;;;;;;;;8387344;28;20090;-76
2022/04/15 23:17:52;;;;;;;69.47;29.45;;;;;;;;;;8391833;28;20121;-76
2022/04/15 23:22:02;;;;;;;61.42;24.27;;;;;;;;;;8400604;28;20048;-78
2022/04/15 23:26:05;;;;;;;53.10;20.85;;;;;;;;;;8382790;28;20045;-77
2022/04/15 23:30:09;;;;;;;62.38;25.67;;;;;;;;;;8399920;28;20059;-76
2022/04/15 23:34:13;;;;;;;54.05;20.48;;;;;;;;;;8395439;28;20051;-77
2022/04/15 23:38:16;;;;;;;49.17;21.23;;;;;;;;;;8385983;28;21370;-77
2022/04/15 23:42:19;;;;;;;44.00;18.13;;;;;;;;;;8376569;28;20045;-79
2022/04/15 23:50:52;;;;;;;41.95;18.48;;;;;;;;;;8386251;28;20041;-77
2022/04/15 23:54:55;;;;;;;39.53;15.85;;;;;;;;;;8398535;28;20048;-77
2022/04/15 23:58:57;;;;;;;35.83;15.02;;;;;;;;;;8426676;28;20050;-76
